sensor_id;sensor_type;location;lat;lon;timestamp;P1;durP1;ratioP1;P2;durP2;ratioP2
46505;SDS011;32220;49.808;9.968;2023-05-07T00:02:10;2.23;;;1.80;;
46505;SDS011;32220;49.808;9.968;2023-05-07T00:04:37;1.83;;;1.63;;
46505;SDS011;32220;49.808;9.968;2023-05-07T00:07:05;1.90;;;1.70;;
46505;SDS011;32220;49.808;9.968;2023-05-07T00:09:33;2.00;;;1.80;;
46505;SDS011;32220;49.808;9.968;2023-05-07T00:12:00;2.13;;;1.77;;
46505;SDS011;32220;49.808;9.968;2023-05-07T00:14:28;1.50;;;1.40;;
46505;SDS011;32220;49.808;9.968;2023-05-07T00:16:55;2.27;;;1.70;;
46505;SDS011;32220;49.808;9.968;2023-05-07T00:19:24;2.33;;;2.13;;
46505;SDS011;32220;49.808;9.968;2023-05-07T00:21:52;2.77;;;1.70;;
46505;SDS011;32220;49.808;9.968;2023-05-07T00:24:20;1.70;;;1.60;;
46505;SDS011;32220;49.808;9.968;2023-05-07T00:26:47;1.53;;;1.43;;
46505;SDS011;32220;49.808;9.968;2023-05-07T00:29:15;1.80;;;1.70;;
46505;SDS011;32220;49.808;9.968;2023-05-07T00:31:43;1.50;;;1.40;;
46505;SDS011;32220;49.808;9.968;2023-05-07T00:34:10;2.13;;;1.50;;
46505;SDS011;32220;49.808;9.968;2023-05-07T00:36:39;2.37;;;2.00;;
46505;SDS011;32220;49.808;9.968;2023-05-07T00:39:07;1.90;;;1.70;;
46505;SDS011;32220;49.808;9.968;2023-05-07T00:41:34;2.43;;;1.90;;
46505;SDS011;32220;49.808;9.968;2023-05-07T00:44:02;1.77;;;1.67;;
46505;SDS011;32220;49.808;9.968;2023-05-07T00:46:30;2.17;;;2.07;;
46505;SDS011;32220;49.808;9.968;2023-05-07T00:48:58;1.80;;;1.70;;
46505;SDS011;32220;49.808;9.968;2023-05-07T00:51:26;1.57;;;1.30;;
46505;SDS011;32220;49.808;9.968;2023-05-07T00:53:57;1.50;;;1.40;;
46505;SDS011;32220;49.808;9.968;2023-05-07T00:56:24;1.60;;;1.50;;
46505;SDS011;32220;49.808;9.968;2023-05-07T00:58:52;1.47;;;1.37;;
46505;SDS011;32220;49.808;9.968;2023-05-07T01:01:20;1.40;;;1.30;;
46505;SDS011;32220;49.808;9.968;2023-05-07T01:03:48;1.37;;;1.27;;
46505;SDS011;32220;49.808;9.968;2023-05-07T01:06:15;1.53;;;1.43;;
46505;SDS011;32220;49.808;9.968;2023-05-07T01:08:44;1.40;;;1.30;;
46505;SDS011;32220;49.808;9.968;2023-05-07T01:11:14;1.70;;;1.60;;
46505;SDS011;32220;49.808;9.968;2023-05-07T01:13:42;1.50;;;1.40;;
46505;SDS011;32220;49.808;9.968;2023-05-07T01:16:11;1.60;;;1.50;;
46505;SDS011;32220;49.808;9.968;2023-05-07T01:18:39;1.70;;;1.40;;
46505;SDS011;32220;49.808;9.968;2023-05-07T01:21:07;1.47;;;1.40;;
46505;SDS011;32220;49.808;9.968;2023-05-07T01:23:39;2.00;;;1.80;;
46505;SDS011;32220;49.808;9.968;2023-05-07T01:28:59;1.70;;;1.60;;
46505;SDS011;32220;49.808;9.968;2023-05-07T01:31:27;1.63;;;1.53;;
46505;SDS011;32220;49.808;9.968;2023-05-07T01:33:56;2.17;;;1.97;;
46505;SDS011;32220;49.808;9.968;2023-05-07T01:36:26;2.40;;;2.20;;
46505;SDS011;32220;49.808;9.968;2023-05-07T01:38:57;2.87;;;2.20;;
46505;SDS011;32220;49.808;9.968;2023-05-07T01:41:26;3.63;;;2.30;;
46505;SDS011;32220;49.808;9.968;2023-05-07T01:43:54;2.33;;;2.03;;
46505;SDS011;32220;49.808;9.968;2023-05-07T01:46:25;3.03;;;1.97;;
46505;SDS011;32220;49.808;9.968;2023-05-07T01:48:53;2.10;;;1.90;;
46505;SDS011;32220;49.808;9.968;2023-05-07T01:51:21;2.83;;;2.13;;
46505;SDS011;32220;49.808;9.968;2023-05-07T01:53:49;1.67;;;1.57;;
46505;SDS011;32220;49.808;9.968;2023-05-07T01:56:20;1.80;;;1.70;;
46505;SDS011;32220;49.808;9.968;2023-05-07T01:58:49;1.80;;;1.70;;
46505;SDS011;32220;49.808;9.968;2023-05-07T02:01:18;1.80;;;1.70;;
46505;SDS011;32220;49.808;9.968;2023-05-07T02:03:45;2.03;;;1.83;;
46505;SDS011;32220;49.808;9.968;2023-05-07T02:06:20;2.07;;;1.87;;
46505;SDS011;32220;49.808;9.968;2023-05-07T02:08:48;2.47;;;2.27;;
46505;SDS011;32220;49.808;9.968;2023-05-07T02:11:16;2.07;;;1.97;;
46505;SDS011;32220;49.808;9.968;2023-05-07T02:13:45;2.47;;;2.27;;
46505;SDS011;32220;49.808;9.968;2023-05-07T02:16:12;2.70;;;2.50;;
46505;SDS011;32220;49.808;9.968;2023-05-07T02:18:40;3.00;;;2.80;;
46505;SDS011;32220;49.808;9.968;2023-05-07T02:21:08;3.60;;;3.30;;
46505;SDS011;32220;49.808;9.968;2023-05-07T02:23:36;4.13;;;3.30;;
46505;SDS011;32220;49.808;9.968;2023-05-07T02:26:04;3.77;;;2.83;;
46505;SDS011;32220;49.808;9.968;2023-05-07T02:28:31;3.60;;;3.30;;
46505;SDS011;32220;49.808;9.968;2023-05-07T02:31:04;3.60;;;3.30;;
46505;SDS011;32220;49.808;9.968;2023-05-07T02:33:32;4.40;;;4.00;;
46505;SDS011;32220;49.808;9.968;2023-05-07T02:36:05;4.30;;;3.90;;
46505;SDS011;32220;49.808;9.968;2023-05-07T02:38:34;3.73;;;3.43;;
46505;SDS011;32220;49.808;9.968;2023-05-07T02:41:03;3.80;;;3.50;;
46505;SDS011;32220;49.808;9.968;2023-05-07T02:43:31;4.13;;;3.73;;
46505;SDS011;32220;49.808;9.968;2023-05-07T02:46:03;5.67;;;3.97;;
46505;SDS011;32220;49.808;9.968;2023-05-07T02:48:34;4.27;;;3.80;;
46505;SDS011;32220;49.808;9.968;2023-05-07T02:51:02;4.60;;;4.20;;
46505;SDS011;32220;49.808;9.968;2023-05-07T02:53:32;4.30;;;3.90;;
46505;SDS011;32220;49.808;9.968;2023-05-07T02:56:00;3.90;;;3.50;;
46505;SDS011;32220;49.808;9.968;2023-05-07T02:58:28;3.93;;;3.53;;
46505;SDS011;32220;49.808;9.968;2023-05-07T03:00:57;3.53;;;3.27;;
46505;SDS011;32220;49.808;9.968;2023-05-07T03:03:37;3.77;;;3.47;;
46505;SDS011;32220;49.808;9.968;2023-05-07T03:06:05;3.73;;;3.43;;
46505;SDS011;32220;49.808;9.968;2023-05-07T03:08:33;3.67;;;3.37;;
46505;SDS011;32220;49.808;9.968;2023-05-07T03:11:01;3.70;;;3.40;;
46505;SDS011;32220;49.808;9.968;2023-05-07T03:13:28;3.77;;;3.50;;
46505;SDS011;32220;49.808;9.968;2023-05-07T03:15:56;3.83;;;3.53;;
46505;SDS011;32220;49.808;9.968;2023-05-07T03:18:24;3.27;;;2.97;;
46505;SDS011;32220;49.808;9.968;2023-05-07T03:20:53;3.97;;;3.57;;
46505;SDS011;32220;49.808;9.968;2023-05-07T03:23:20;3.70;;;3.40;;
46505;SDS011;32220;49.808;9.968;2023-05-07T03:25:48;3.97;;;3.67;;
46505;SDS011;32220;49.808;9.968;2023-05-07T03:28:15;5.13;;;3.70;;
46505;SDS011;32220;49.808;9.968;2023-05-07T03:30:49;4.00;;;3.70;;
46505;SDS011;32220;49.808;9.968;2023-05-07T03:33:17;4.27;;;3.97;;
46505;SDS011;32220;49.808;9.968;2023-05-07T03:35:45;5.20;;;4.70;;
46505;SDS011;32220;49.808;9.968;2023-05-07T03:38:19;4.70;;;4.30;;
46505;SDS011;32220;49.808;9.968;2023-05-07T03:40:47;5.87;;;4.97;;
46505;SDS011;32220;49.808;9.968;2023-05-07T03:43:15;5.43;;;4.47;;
46505;SDS011;32220;49.808;9.968;2023-05-07T03:45:48;4.60;;;4.20;;
46505;SDS011;32220;49.808;9.968;2023-05-07T03:48:20;4.63;;;4.23;;
46505;SDS011;32220;49.808;9.968;2023-05-07T03:50:50;4.77;;;4.37;;
46505;SDS011;32220;49.808;9.968;2023-05-07T03:53:21;5.83;;;5.30;;
46505;SDS011;32220;49.808;9.968;2023-05-07T03:55:49;6.00;;;4.83;;
46505;SDS011;32220;49.808;9.968;2023-05-07T03:58:17;5.20;;;4.80;;
46505;SDS011;32220;49.808;9.968;2023-05-07T04:00:45;6.20;;;5.70;;
46505;SDS011;32220;49.808;9.968;2023-05-07T04:03:24;6.03;;;5.20;;
46505;SDS011;32220;49.808;9.968;2023-05-07T04:05:53;6.13;;;5.57;;
46505;SDS011;32220;49.808;9.968;2023-05-07T04:08:22;6.07;;;5.57;;
46505;SDS011;32220;49.808;9.968;2023-05-07T04:10:56;6.23;;;5.60;;
46505;SDS011;32220;49.808;9.968;2023-05-07T04:13:27;6.90;;;6.20;;
46505;SDS011;32220;49.808;9.968;2023-05-07T04:15:57;7.83;;;5.80;;
46505;SDS011;32220;49.808;9.968;2023-05-07T04:18:26;6.00;;;5.50;;
46505;SDS011;32220;49.808;9.968;2023-05-07T04:20:53;6.30;;;5.70;;
46505;SDS011;32220;49.808;9.968;2023-05-07T04:23:23;6.77;;;6.17;;
46505;SDS011;32220;49.808;9.968;2023-05-07T04:25:51;6.03;;;5.50;;
46505;SDS011;32220;49.808;9.968;2023-05-07T04:28:35;6.33;;;5.73;;
46505;SDS011;32220;49.808;9.968;2023-05-07T04:31:03;6.53;;;5.93;;
46505;SDS011;32220;49.808;9.968;2023-05-07T04:33:33;6.63;;;6.10;;
46505;SDS011;32220;49.808;9.968;2023-05-07T04:36:02;7.47;;;6.83;;
46505;SDS011;32220;49.808;9.968;2023-05-07T04:38:36;7.30;;;6.60;;
46505;SDS011;32220;49.808;9.968;2023-05-07T04:41:05;6.23;;;5.67;;
46505;SDS011;32220;49.808;9.968;2023-05-07T04:43:38;7.17;;;6.47;;
46505;SDS011;32220;49.808;9.968;2023-05-07T04:46:06;6.17;;;5.57;;
46505;SDS011;32220;49.808;9.968;2023-05-07T04:48:33;6.93;;;6.37;;
46505;SDS011;32220;49.808;9.968;2023-05-07T04:51:03;6.20;;;5.70;;
46505;SDS011;32220;49.808;9.968;2023-05-07T04:53:33;5.50;;;5.07;;
46505;SDS011;32220;49.808;9.968;2023-05-07T04:56:02;6.80;;;6.20;;
46505;SDS011;32220;49.808;9.968;2023-05-07T04:58:36;6.23;;;5.37;;
46505;SDS011;32220;49.808;9.968;2023-05-07T05:01:05;6.13;;;5.60;;
46505;SDS011;32220;49.808;9.968;2023-05-07T05:03:32;6.50;;;6.00;;
46505;SDS011;32220;49.808;9.968;2023-05-07T05:06:00;6.03;;;5.43;;
46505;SDS011;32220;49.808;9.968;2023-05-07T05:08:31;6.30;;;5.70;;
46505;SDS011;32220;49.808;9.968;2023-05-07T05:11:02;6.43;;;5.80;;
46505;SDS011;32220;49.808;9.968;2023-05-07T05:13:32;6.10;;;5.57;;
46505;SDS011;32220;49.808;9.968;2023-05-07T05:16:03;5.70;;;5.20;;
46505;SDS011;32220;49.808;9.968;2023-05-07T05:18:32;5.80;;;5.30;;
46505;SDS011;32220;49.808;9.968;2023-05-07T05:21:00;7.87;;;7.17;;
46505;SDS011;32220;49.808;9.968;2023-05-07T05:23:28;5.50;;;5.00;;
46505;SDS011;32220;49.808;9.968;2023-05-07T05:25:56;6.27;;;5.77;;
46505;SDS011;32220;49.808;9.968;2023-05-07T05:28:28;7.57;;;6.70;;
46505;SDS011;32220;49.808;9.968;2023-05-07T05:30:56;6.07;;;5.57;;
46505;SDS011;32220;49.808;9.968;2023-05-07T05:33:26;5.73;;;5.13;;
46505;SDS011;32220;49.808;9.968;2023-05-07T05:36:00;6.43;;;5.90;;
46505;SDS011;32220;49.808;9.968;2023-05-07T05:38:28;6.30;;;5.70;;
46505;SDS011;32220;49.808;9.968;2023-05-07T05:40:56;6.73;;;6.13;;
46505;SDS011;32220;49.808;9.968;2023-05-07T05:43:24;6.73;;;6.13;;
46505;SDS011;32220;49.808;9.968;2023-05-07T05:45:54;7.40;;;6.70;;
46505;SDS011;32220;49.808;9.968;2023-05-07T05:48:22;6.77;;;6.17;;
46505;SDS011;32220;49.808;9.968;2023-05-07T05:50:50;5.97;;;5.47;;
46505;SDS011;32220;49.808;9.968;2023-05-07T05:53:18;7.80;;;7.10;;
46505;SDS011;32220;49.808;9.968;2023-05-07T05:55:46;6.30;;;5.70;;
46505;SDS011;32220;49.808;9.968;2023-05-07T05:58:14;6.97;;;6.27;;
46505;SDS011;32220;49.808;9.968;2023-05-07T06:00:48;7.07;;;6.47;;
46505;SDS011;32220;49.808;9.968;2023-05-07T06:03:20;7.33;;;6.50;;
46505;SDS011;32220;49.808;9.968;2023-05-07T06:05:47;7.30;;;6.70;;
46505;SDS011;32220;49.808;9.968;2023-05-07T06:08:15;8.07;;;7.37;;
46505;SDS011;32220;49.808;9.968;2023-05-07T06:10:44;7.33;;;6.70;;
46505;SDS011;32220;49.808;9.968;2023-05-07T06:13:12;7.77;;;7.07;;
46505;SDS011;32220;49.808;9.968;2023-05-07T06:15:41;7.50;;;6.80;;
46505;SDS011;32220;49.808;9.968;2023-05-07T06:18:11;8.73;;;7.10;;
46505;SDS011;32220;49.808;9.968;2023-05-07T06:20:41;7.10;;;6.30;;
46505;SDS011;32220;49.808;9.968;2023-05-07T06:23:17;8.07;;;7.37;;
46505;SDS011;32220;49.808;9.968;2023-05-07T06:25:47;6.93;;;6.33;;
46505;SDS011;32220;49.808;9.968;2023-05-07T06:28:16;7.17;;;6.47;;
46505;SDS011;32220;49.808;9.968;2023-05-07T06:30:43;7.03;;;6.33;;
46505;SDS011;32220;49.808;9.968;2023-05-07T06:33:11;7.57;;;6.87;;
46505;SDS011;32220;49.808;9.968;2023-05-07T06:35:39;6.40;;;5.80;;
46505;SDS011;32220;49.808;9.968;2023-05-07T06:38:08;7.63;;;6.90;;
46505;SDS011;32220;49.808;9.968;2023-05-07T06:40:36;7.50;;;6.77;;
46505;SDS011;32220;49.808;9.968;2023-05-07T06:43:04;6.43;;;5.83;;
46505;SDS011;32220;49.808;9.968;2023-05-07T06:45:54;7.27;;;6.60;;
46505;SDS011;32220;49.808;9.968;2023-05-07T06:48:22;7.00;;;6.40;;
46505;SDS011;32220;49.808;9.968;2023-05-07T06:50:57;6.93;;;6.33;;
46505;SDS011;32220;49.808;9.968;2023-05-07T06:53:27;8.17;;;7.40;;
46505;SDS011;32220;49.808;9.968;2023-05-07T06:55:57;6.27;;;5.77;;
46505;SDS011;32220;49.808;9.968;2023-05-07T06:58:25;7.63;;;6.93;;
46505;SDS011;32220;49.808;9.968;2023-05-07T07:00:53;7.47;;;6.87;;
46505;SDS011;32220;49.808;9.968;2023-05-07T07:03:21;7.10;;;6.50;;
46505;SDS011;32220;49.808;9.968;2023-05-07T07:05:51;7.83;;;7.13;;
46505;SDS011;32220;49.808;9.968;2023-05-07T07:08:19;9.33;;;7.37;;
46505;SDS011;32220;49.808;9.968;2023-05-07T07:10:48;8.03;;;7.33;;
46505;SDS011;32220;49.808;9.968;2023-05-07T07:13:16;7.77;;;7.13;;
46505;SDS011;32220;49.808;9.968;2023-05-07T07:15:43;7.17;;;6.47;;
46505;SDS011;32220;49.808;9.968;2023-05-07T07:18:11;7.20;;;6.50;;
46505;SDS011;32220;49.808;9.968;2023-05-07T07:20:39;7.47;;;6.73;;
46505;SDS011;32220;49.808;9.968;2023-05-07T07:23:08;7.27;;;6.57;;
46505;SDS011;32220;49.808;9.968;2023-05-07T07:25:36;7.43;;;6.70;;
46505;SDS011;32220;49.808;9.968;2023-05-07T07:28:05;6.93;;;5.87;;
46505;SDS011;32220;49.808;9.968;2023-05-07T07:30:33;6.40;;;5.77;;
46505;SDS011;32220;49.808;9.968;2023-05-07T07:33:01;6.70;;;6.10;;
46505;SDS011;32220;49.808;9.968;2023-05-07T07:35:33;7.13;;;6.53;;
46505;SDS011;32220;49.808;9.968;2023-05-07T07:38:00;6.90;;;6.30;;
46505;SDS011;32220;49.808;9.968;2023-05-07T07:40:29;6.47;;;5.80;;
46505;SDS011;32220;49.808;9.968;2023-05-07T07:42:57;6.57;;;5.97;;
46505;SDS011;32220;49.808;9.968;2023-05-07T07:45:29;7.10;;;6.50;;
46505;SDS011;32220;49.808;9.968;2023-05-07T07:47:57;6.83;;;6.33;;
46505;SDS011;32220;49.808;9.968;2023-05-07T07:50:25;6.33;;;5.83;;
46505;SDS011;32220;49.808;9.968;2023-05-07T07:52:52;6.50;;;5.90;;
46505;SDS011;32220;49.808;9.968;2023-05-07T07:55:20;6.80;;;6.20;;
46505;SDS011;32220;49.808;9.968;2023-05-07T07:57:52;5.97;;;5.47;;
46505;SDS011;32220;49.808;9.968;2023-05-07T08:00:21;5.80;;;5.30;;
46505;SDS011;32220;49.808;9.968;2023-05-07T08:02:54;6.83;;;6.23;;
46505;SDS011;32220;49.808;9.968;2023-05-07T08:05:27;6.63;;;6.13;;
46505;SDS011;32220;49.808;9.968;2023-05-07T08:07:54;6.43;;;5.93;;
46505;SDS011;32220;49.808;9.968;2023-05-07T08:10:27;6.70;;;6.10;;
46505;SDS011;32220;49.808;9.968;2023-05-07T08:13:00;6.50;;;5.90;;
46505;SDS011;32220;49.808;9.968;2023-05-07T08:15:30;6.40;;;5.80;;
46505;SDS011;32220;49.808;9.968;2023-05-07T08:17:59;6.27;;;5.67;;
46505;SDS011;32220;49.808;9.968;2023-05-07T08:20:27;6.50;;;5.90;;
46505;SDS011;32220;49.808;9.968;2023-05-07T08:22:56;5.30;;;4.90;;
46505;SDS011;32220;49.808;9.968;2023-05-07T08:25:25;5.67;;;5.07;;
46505;SDS011;32220;49.808;9.968;2023-05-07T08:27:53;5.60;;;5.20;;
46505;SDS011;32220;49.808;9.968;2023-05-07T08:30:21;6.93;;;5.83;;
46505;SDS011;32220;49.808;9.968;2023-05-07T08:32:50;6.30;;;5.70;;
46505;SDS011;32220;49.808;9.968;2023-05-07T08:35:19;5.97;;;5.47;;
46505;SDS011;32220;49.808;9.968;2023-05-07T08:37:47;6.93;;;6.00;;
46505;SDS011;32220;49.808;9.968;2023-05-07T08:40:17;6.80;;;5.80;;
46505;SDS011;32220;49.808;9.968;2023-05-07T08:42:45;5.73;;;5.20;;
46505;SDS011;32220;49.808;9.968;2023-05-07T08:45:16;5.97;;;5.47;;
46505;SDS011;32220;49.808;9.968;2023-05-07T08:47:46;6.20;;;5.40;;
46505;SDS011;32220;49.808;9.968;2023-05-07T08:50:22;6.73;;;5.33;;
46505;SDS011;32220;49.808;9.968;2023-05-07T08:52:51;5.53;;;5.10;;
46505;SDS011;32220;49.808;9.968;2023-05-07T08:55:20;6.13;;;5.63;;
46505;SDS011;32220;49.808;9.968;2023-05-07T08:57:48;6.23;;;5.63;;
46505;SDS011;32220;49.808;9.968;2023-05-07T09:00:17;5.10;;;4.70;;
46505;SDS011;32220;49.808;9.968;2023-05-07T09:02:48;5.43;;;5.03;;
46505;SDS011;32220;49.808;9.968;2023-05-07T09:05:16;5.83;;;5.33;;
46505;SDS011;32220;49.808;9.968;2023-05-07T09:07:46;5.83;;;5.33;;
46505;SDS011;32220;49.808;9.968;2023-05-07T09:10:15;5.40;;;5.00;;
46505;SDS011;32220;49.808;9.968;2023-05-07T09:12:46;6.53;;;6.03;;
46505;SDS011;32220;49.808;9.968;2023-05-07T09:15:15;6.23;;;5.63;;
46505;SDS011;32220;49.808;9.968;2023-05-07T09:17:43;5.80;;;5.30;;
46505;SDS011;32220;49.808;9.968;2023-05-07T09:20:12;6.00;;;5.40;;
46505;SDS011;32220;49.808;9.968;2023-05-07T09:22:40;5.60;;;5.10;;
46505;SDS011;32220;49.808;9.968;2023-05-07T09:25:13;6.30;;;5.80;;
46505;SDS011;32220;49.808;9.968;2023-05-07T09:27:43;5.63;;;5.13;;
46505;SDS011;32220;49.808;9.968;2023-05-07T09:30:11;7.33;;;6.73;;
46505;SDS011;32220;49.808;9.968;2023-05-07T09:32:39;5.80;;;5.30;;
46505;SDS011;32220;49.808;9.968;2023-05-07T09:35:16;5.07;;;4.67;;
46505;SDS011;32220;49.808;9.968;2023-05-07T09:37:48;5.93;;;5.43;;
46505;SDS011;32220;49.808;9.968;2023-05-07T09:40:21;6.33;;;5.83;;
46505;SDS011;32220;49.808;9.968;2023-05-07T09:42:50;6.47;;;5.97;;
46505;SDS011;32220;49.808;9.968;2023-05-07T09:45:22;5.67;;;5.17;;
46505;SDS011;32220;49.808;9.968;2023-05-07T09:47:53;5.87;;;5.37;;
46505;SDS011;32220;49.808;9.968;2023-05-07T09:50:26;5.80;;;5.20;;
46505;SDS011;32220;49.808;9.968;2023-05-07T09:52:55;5.53;;;5.10;;
46505;SDS011;32220;49.808;9.968;2023-05-07T09:55:26;5.47;;;4.97;;
46505;SDS011;32220;49.808;9.968;2023-05-07T09:57:54;5.43;;;5.03;;
46505;SDS011;32220;49.808;9.968;2023-05-07T10:00:23;4.40;;;4.00;;
46505;SDS011;32220;49.808;9.968;2023-05-07T10:02:59;5.27;;;4.80;;
46505;SDS011;32220;49.808;9.968;2023-05-07T10:05:37;5.80;;;4.73;;
46505;SDS011;32220;49.808;9.968;2023-05-07T10:08:05;5.47;;;4.97;;
46505;SDS011;32220;49.808;9.968;2023-05-07T10:10:38;4.90;;;4.50;;
46505;SDS011;32220;49.808;9.968;2023-05-07T10:13:09;5.20;;;4.80;;
46505;SDS011;32220;49.808;9.968;2023-05-07T10:15:40;4.47;;;4.07;;
46505;SDS011;32220;49.808;9.968;2023-05-07T10:18:08;4.80;;;4.40;;
46505;SDS011;32220;49.808;9.968;2023-05-07T10:20:37;4.77;;;4.30;;
46505;SDS011;32220;49.808;9.968;2023-05-07T10:23:08;4.77;;;4.37;;
46505;SDS011;32220;49.808;9.968;2023-05-07T10:25:46;4.70;;;4.30;;
46505;SDS011;32220;49.808;9.968;2023-05-07T10:28:19;4.93;;;4.57;;
46505;SDS011;32220;49.808;9.968;2023-05-07T10:30:56;4.82;;;4.43;;
46505;SDS011;32220;49.808;9.968;2023-05-07T10:33:37;4.88;;;4.47;;
46505;SDS011;32220;49.808;9.968;2023-05-07T10:36:07;4.80;;;4.40;;
46505;SDS011;32220;49.808;9.968;2023-05-07T10:38:36;4.03;;;3.72;;
46505;SDS011;32220;49.808;9.968;2023-05-07T10:41:06;4.63;;;4.22;;
46505;SDS011;32220;49.808;9.968;2023-05-07T10:43:43;4.43;;;4.13;;
46505;SDS011;32220;49.808;9.968;2023-05-07T10:46:33;4.53;;;4.13;;
46505;SDS011;32220;49.808;9.968;2023-05-07T10:49:16;5.00;;;4.60;;
46505;SDS011;32220;49.808;9.968;2023-05-07T10:52:13;5.20;;;4.73;;
46505;SDS011;32220;49.808;9.968;2023-05-07T10:58:06;4.37;;;3.97;;
46505;SDS011;32220;49.808;9.968;2023-05-07T11:00:57;5.13;;;4.63;;
46505;SDS011;32220;49.808;9.968;2023-05-07T11:03:31;4.17;;;3.80;;
46505;SDS011;32220;49.808;9.968;2023-05-07T11:06:11;4.40;;;4.00;;
46505;SDS011;32220;49.808;9.968;2023-05-07T11:09:02;4.43;;;4.13;;
46505;SDS011;32220;49.808;9.968;2023-05-07T11:11:49;3.77;;;3.47;;
46505;SDS011;32220;49.808;9.968;2023-05-07T11:14:53;3.90;;;3.60;;
46505;SDS011;32220;49.808;9.968;2023-05-07T11:17:31;4.57;;;4.03;;
46505;SDS011;32220;49.808;9.968;2023-05-07T11:20:04;3.77;;;3.47;;
46505;SDS011;32220;49.808;9.968;2023-05-07T11:22:55;4.27;;;3.93;;
46505;SDS011;32220;49.808;9.968;2023-05-07T11:25:44;4.00;;;3.70;;
46505;SDS011;32220;49.808;9.968;2023-05-07T11:28:17;4.37;;;3.97;;
46505;SDS011;32220;49.808;9.968;2023-05-07T11:30:55;4.30;;;4.00;;
46505;SDS011;32220;49.808;9.968;2023-05-07T11:33:24;3.90;;;3.60;;
46505;SDS011;32220;49.808;9.968;2023-05-07T11:35:53;5.00;;;4.10;;
46505;SDS011;32220;49.808;9.968;2023-05-07T11:38:24;4.07;;;3.67;;
46505;SDS011;32220;49.808;9.968;2023-05-07T11:40:52;4.10;;;3.80;;
46505;SDS011;32220;49.808;9.968;2023-05-07T11:43:20;3.80;;;3.50;;
46505;SDS011;32220;49.808;9.968;2023-05-07T11:45:48;4.10;;;3.80;;
46505;SDS011;32220;49.808;9.968;2023-05-07T11:48:18;4.30;;;4.00;;
46505;SDS011;32220;49.808;9.968;2023-05-07T11:50:50;5.50;;;3.70;;
46505;SDS011;32220;49.808;9.968;2023-05-07T11:53:19;4.10;;;3.80;;
46505;SDS011;32220;49.808;9.968;2023-05-07T11:55:47;4.00;;;3.70;;
46505;SDS011;32220;49.808;9.968;2023-05-07T11:58:20;3.55;;;3.25;;
46505;SDS011;32220;49.808;9.968;2023-05-07T12:00:49;3.78;;;3.47;;
46505;SDS011;32220;49.808;9.968;2023-05-07T12:03:18;3.88;;;3.58;;
46505;SDS011;32220;49.808;9.968;2023-05-07T12:05:46;3.38;;;3.17;;
46505;SDS011;32220;49.808;9.968;2023-05-07T12:08:14;4.40;;;3.05;;
46505;SDS011;32220;49.808;9.968;2023-05-07T12:10:42;4.00;;;3.10;;
46505;SDS011;32220;49.808;9.968;2023-05-07T12:13:14;4.78;;;3.47;;
46505;SDS011;32220;49.808;9.968;2023-05-07T12:15:42;3.20;;;2.97;;
46505;SDS011;32220;49.808;9.968;2023-05-07T12:18:10;3.20;;;2.90;;
46505;SDS011;32220;49.808;9.968;2023-05-07T12:20:39;3.03;;;2.83;;
46505;SDS011;32220;49.808;9.968;2023-05-07T12:23:07;3.83;;;2.45;;
46505;SDS011;32220;49.808;9.968;2023-05-07T12:25:36;2.88;;;2.67;;
46505;SDS011;32220;49.808;9.968;2023-05-07T12:28:04;3.17;;;2.97;;
46505;SDS011;32220;49.808;9.968;2023-05-07T12:30:32;3.20;;;2.90;;
46505;SDS011;32220;49.808;9.968;2023-05-07T12:33:03;3.10;;;2.90;;
46505;SDS011;32220;49.808;9.968;2023-05-07T12:35:31;3.00;;;2.80;;
46505;SDS011;32220;49.808;9.968;2023-05-07T12:38:06;2.80;;;2.60;;
46505;SDS011;32220;49.808;9.968;2023-05-07T12:40:37;2.50;;;2.30;;
46505;SDS011;32220;49.808;9.968;2023-05-07T12:43:05;2.47;;;2.28;;
46505;SDS011;32220;49.808;9.968;2023-05-07T12:45:36;2.92;;;2.60;;
46505;SDS011;32220;49.808;9.968;2023-05-07T12:48:04;2.80;;;2.60;;
46505;SDS011;32220;49.808;9.968;2023-05-07T12:50:32;2.90;;;2.70;;
46505;SDS011;32220;49.808;9.968;2023-05-07T12:53:00;2.60;;;2.40;;
46505;SDS011;32220;49.808;9.968;2023-05-07T12:55:40;2.65;;;2.45;;
46505;SDS011;32220;49.808;9.968;2023-05-07T12:58:08;2.80;;;2.50;;
46505;SDS011;32220;49.808;9.968;2023-05-07T13:00:43;2.47;;;2.28;;
46505;SDS011;32220;49.808;9.968;2023-05-07T13:03:11;2.92;;;2.72;;
46505;SDS011;32220;49.808;9.968;2023-05-07T13:05:38;3.08;;;2.30;;
46505;SDS011;32220;49.808;9.968;2023-05-07T13:08:07;3.35;;;2.63;;
46505;SDS011;32220;49.808;9.968;2023-05-07T13:10:35;2.05;;;1.95;;
46505;SDS011;32220;49.808;9.968;2023-05-07T13:13:03;2.25;;;2.15;;
46505;SDS011;32220;49.808;9.968;2023-05-07T13:15:31;2.28;;;2.08;;
46505;SDS011;32220;49.808;9.968;2023-05-07T13:17:59;2.00;;;1.90;;
46505;SDS011;32220;49.808;9.968;2023-05-07T13:20:26;2.03;;;1.75;;
46505;SDS011;32220;49.808;9.968;2023-05-07T13:22:54;2.17;;;2.08;;
46505;SDS011;32220;49.808;9.968;2023-05-07T13:25:23;2.28;;;2.08;;
46505;SDS011;32220;49.808;9.968;2023-05-07T13:27:51;1.80;;;1.70;;
46505;SDS011;32220;49.808;9.968;2023-05-07T13:30:19;2.97;;;2.05;;
46505;SDS011;32220;49.808;9.968;2023-05-07T13:32:46;4.03;;;1.88;;
46505;SDS011;32220;49.808;9.968;2023-05-07T13:35:15;2.17;;;1.95;;
46505;SDS011;32220;49.808;9.968;2023-05-07T13:37:43;2.33;;;2.05;;
46505;SDS011;32220;49.808;9.968;2023-05-07T13:40:11;2.17;;;1.88;;
46505;SDS011;32220;49.808;9.968;2023-05-07T13:42:40;2.50;;;2.30;;
46505;SDS011;32220;49.808;9.968;2023-05-07T13:45:08;2.22;;;2.03;;
46505;SDS011;32220;49.808;9.968;2023-05-07T13:47:36;3.53;;;2.33;;
46505;SDS011;32220;49.808;9.968;2023-05-07T13:50:04;1.92;;;1.83;;
46505;SDS011;32220;49.808;9.968;2023-05-07T13:52:33;2.70;;;2.28;;
46505;SDS011;32220;49.808;9.968;2023-05-07T13:55:00;2.47;;;2.28;;
46505;SDS011;32220;49.808;9.968;2023-05-07T13:57:28;2.67;;;2.35;;
46505;SDS011;32220;49.808;9.968;2023-05-07T13:59:57;3.30;;;2.10;;
46505;SDS011;32220;49.808;9.968;2023-05-07T14:02:25;2.30;;;2.00;;
46505;SDS011;32220;49.808;9.968;2023-05-07T14:04:53;3.35;;;2.17;;
46505;SDS011;32220;49.808;9.968;2023-05-07T14:07:20;2.33;;;2.13;;
46505;SDS011;32220;49.808;9.968;2023-05-07T14:09:48;2.40;;;2.20;;
46505;SDS011;32220;49.808;9.968;2023-05-07T14:12:15;2.53;;;2.00;;
46505;SDS011;32220;49.808;9.968;2023-05-07T14:14:43;1.98;;;1.88;;
46505;SDS011;32220;49.808;9.968;2023-05-07T14:17:12;2.50;;;2.30;;
46505;SDS011;32220;49.808;9.968;2023-05-07T14:19:40;2.50;;;2.30;;
46505;SDS011;32220;49.808;9.968;2023-05-07T14:22:08;2.53;;;2.33;;
46505;SDS011;32220;49.808;9.968;2023-05-07T14:24:35;2.93;;;2.73;;
46505;SDS011;32220;49.808;9.968;2023-05-07T14:27:04;3.30;;;2.63;;
46505;SDS011;32220;49.808;9.968;2023-05-07T14:29:32;2.50;;;2.30;;
46505;SDS011;32220;49.808;9.968;2023-05-07T14:32:01;3.00;;;2.80;;
46505;SDS011;32220;49.808;9.968;2023-05-07T14:34:30;2.37;;;2.27;;
46505;SDS011;32220;49.808;9.968;2023-05-07T14:36:58;2.80;;;2.60;;
46505;SDS011;32220;49.808;9.968;2023-05-07T14:39:27;4.03;;;3.07;;
46505;SDS011;32220;49.808;9.968;2023-05-07T14:41:55;3.47;;;3.17;;
46505;SDS011;32220;49.808;9.968;2023-05-07T14:44:24;2.97;;;2.77;;
46505;SDS011;32220;49.808;9.968;2023-05-07T14:46:51;3.10;;;2.80;;
46505;SDS011;32220;49.808;9.968;2023-05-07T14:49:19;3.70;;;3.40;;
46505;SDS011;32220;49.808;9.968;2023-05-07T14:51:48;3.30;;;3.10;;
46505;SDS011;32220;49.808;9.968;2023-05-07T14:54:15;3.37;;;3.07;;
46505;SDS011;32220;49.808;9.968;2023-05-07T14:56:43;3.60;;;3.30;;
46505;SDS011;32220;49.808;9.968;2023-05-07T14:59:11;3.37;;;3.03;;
46505;SDS011;32220;49.808;9.968;2023-05-07T15:01:38;3.97;;;3.40;;
46505;SDS011;32220;49.808;9.968;2023-05-07T15:04:11;3.27;;;2.97;;
46505;SDS011;32220;49.808;9.968;2023-05-07T15:06:38;3.63;;;2.83;;
46505;SDS011;32220;49.808;9.968;2023-05-07T15:09:07;3.50;;;3.20;;
46505;SDS011;32220;49.808;9.968;2023-05-07T15:11:35;3.63;;;3.33;;